Time;durP1;ratioP1;P1;durP2;ratioP2;P2;SDS_P1;SDS_P2;PMS_P1;PMS_P2;Temp;Humidity;BMP_temperature;BMP_pressure;BME280_temperature;BME280_humidity;BME280_pressure;Samples;Min_cycle;Max_cycle;Signal;HPM_P1;HPM_P2
2023/11/28 00:00:35;;;;;;;35.08;33.08;;;;;;;2.02;100.00;100599.66;5070187;28;20123;-77
2023/11/28 00:03:12;;;;;;;36.63;34.63;;;;;;;1.81;100.00;100581.66;5068138;28;20049;-77
2023/11/28 00:05:42;;;;;;;32.42;30.52;;;;;;;1.91;100.00;100592.88;5055921;28;20426;-77
2023/11/28 00:08:20;;;;;;;33.40;31.63;;;;;;;1.93;100.00;100595.31;5052871;28;20056;-77
2023/11/28 00:10:50;;;;;;;34.47;32.58;;;;;;;1.99;100.00;100589.47;5067541;28;20060;-77
2023/11/28 00:13:17;;;;;;;34.78;32.88;;;;;;;2.09;100.00;100584.97;5058236;28;20055;-77
2023/11/28 00:15:44;;;;;;;48.65;46.05;;;;;;;2.13;100.00;100583.69;5068850;28;20052;-77
2023/11/28 00:18:12;;;;;;;38.83;36.38;;;;;;;2.17;100.00;100577.16;5060416;28;20071;-77
2023/11/28 00:20:39;;;;;;;30.35;28.50;;;;;;;2.18;100.00;100589.28;5055963;28;20055;-77
2023/11/28 00:23:12;;;;;;;29.83;28.23;;;;;;;1.89;100.00;100580.91;5061670;28;20419;-77
2023/11/28 00:25:40;;;;;;;30.40;28.70;;;;;;;2.08;100.00;100582.50;5053125;28;20049;-77
2023/11/28 00:28:06;;;;;;;33.22;30.80;;;;;;;2.06;100.00;100593.16;5056753;28;20045;-77
2023/11/28 00:30:33;;;;;;;28.40;26.70;;;;;;;2.24;100.00;100583.44;5063065;28;20088;-77
2023/11/28 00:33:03;;;;;;;39.70;37.40;;;;;;;2.12;100.00;100594.31;5068918;28;20456;-77
2023/11/28 00:35:32;;;;;;;50.00;47.40;;;;;;;2.02;100.00;100587.38;5062846;28;20086;-77
2023/11/28 00:38:08;;;;;;;45.47;43.08;;;;;;;1.64;100.00;100583.31;5059671;28;20084;-81
2023/11/28 00:40:35;;;;;;;35.03;33.03;;;;;;;1.66;100.00;100573.50;5070004;28;20135;-80
2023/11/28 00:43:13;;;;;;;31.17;29.35;;;;;;;1.90;100.00;100579.91;5069149;28;20048;-81
2023/11/28 00:45:40;;;;;;;40.40;38.20;;;;;;;1.83;100.00;100580.53;5069627;28;20052;-80
2023/11/28 00:48:07;;;;;;;37.08;35.08;;;;;;;1.89;100.00;100578.28;5058493;28;20061;-81
2023/11/28 00:50:36;;;;;;;35.55;33.45;;;;;;;1.71;100.00;100571.25;5064604;28;20463;-81
2023/11/28 00:53:03;;;;;;;37.00;34.90;;;;;;;1.51;100.00;100562.78;5071601;28;20068;-81
2023/11/28 00:55:31;;;;;;;43.28;40.88;;;;;;;1.66;100.00;100560.41;5063579;28;20701;-81
2023/11/28 00:58:06;;;;;;;44.83;42.22;;;;;;;1.18;100.00;100555.56;5062325;28;20517;-80
2023/11/28 01:00:33;;;;;;;39.03;36.63;;;;;;;1.29;100.00;100555.34;5071541;28;20472;-80
2023/11/28 01:03:01;;;;;;;33.38;31.38;;;;;;;0.88;100.00;100547.94;5065931;28;20044;-80
2023/11/28 01:05:49;;;;;;;37.53;35.22;;;;;;;1.15;100.00;100546.25;5054439;28;20049;-81
2023/11/28 01:08:22;;;;;;;38.20;36.00;;;;;;;0.96;100.00;100544.56;5041493;28;20114;-80
2023/11/28 01:10:50;;;;;;;40.92;38.42;;;;;;;0.66;100.00;100549.13;5052560;28;20059;-77
2023/11/28 01:13:17;;;;;;;32.05;30.15;;;;;;;0.48;100.00;100539.59;5069160;28;20131;-81
2023/11/28 01:15:44;;;;;;;32.03;29.92;;;;;;;0.54;100.00;100539.03;5058315;28;20044;-81
2023/11/28 01:18:10;;;;;;;35.88;33.72;;;;;;;0.63;100.00;100538.97;5068436;28;20074;-81
2023/11/28 01:20:38;;;;;;;40.42;38.13;;;;;;;1.02;100.00;100533.50;5059113;28;20047;-77
2023/11/28 01:23:06;;;;;;;40.45;38.05;;;;;;;1.08;100.00;100537.34;5061253;28;20051;-77
2023/11/28 01:25:33;;;;;;;38.75;36.35;;;;;;;0.99;100.00;100539.03;5065817;28;20131;-77
2023/11/28 01:28:06;;;;;;;27.17;25.55;;;;;;;1.09;100.00;100538.97;5070134;28;20052;-77
2023/11/28 01:30:34;;;;;;;30.92;29.13;;;;;;;0.98;100.00;100537.41;5063555;28;20040;-81
2023/11/28 01:33:02;;;;;;;47.33;44.92;;;;;;;0.87;100.00;100514.88;5058481;28;20049;-80
2023/11/28 01:35:29;;;;;;;46.50;44.10;;;;;;;0.99;100.00;100519.91;5065362;28;20057;-80
2023/11/28 01:38:11;;;;;;;45.20;42.80;;;;;;;1.14;100.00;100521.84;5069824;28;20136;-80
2023/11/28 01:40:38;;;;;;;36.92;34.92;;;;;;;1.23;100.00;100521.94;5068719;28;20166;-81
2023/11/28 01:43:05;;;;;;;42.75;40.05;;;;;;;0.71;100.00;100519.13;5059322;28;20079;-81
2023/11/28 01:45:32;;;;;;;46.13;43.33;;;;;;;1.00;100.00;100513.69;5060464;28;20123;-81
2023/11/28 01:47:59;;;;;;;37.13;34.92;;;;;;;0.54;100.00;100507.66;5062518;28;20063;-81
2023/11/28 01:50:27;;;;;;;34.97;32.88;;;;;;;0.58;100.00;100498.59;5053494;28;20127;-78
2023/11/28 01:52:54;;;;;;;37.83;35.63;;;;;;;0.88;100.00;100500.88;5060278;28;20131;-77
2023/11/28 01:55:28;;;;;;;36.65;34.45;;;;;;;1.09;100.00;100508.44;5057150;28;20055;-77
2023/11/28 01:57:55;;;;;;;41.50;39.15;;;;;;;0.98;100.00;100495.56;5060941;28;20076;-80
2023/11/28 02:00:22;;;;;;;37.72;35.53;;;;;;;1.13;100.00;100499.28;5054116;28;20045;-77
2023/11/28 02:02:49;;;;;;;45.70;43.10;;;;;;;0.98;100.00;100492.13;5055433;28;20048;-80
2023/11/28 02:05:18;;;;;;;46.50;44.00;;;;;;;0.90;100.00;100487.63;5056341;28;20063;-80
2023/11/28 02:07:58;;;;;;;37.50;35.30;;;;;;;0.51;100.00;100487.88;5054602;28;20081;-80
2023/11/28 02:10:35;;;;;;;36.47;34.47;;;;;;;0.26;100.00;100478.91;5058324;28;20106;-81
2023/11/28 02:13:02;;;;;;;40.95;38.75;;;;;;;0.42;100.00;100471.28;5050332;28;20048;-80
2023/11/28 02:15:40;;;;;;;47.38;44.45;;;;;;;0.78;100.00;100467.91;5049975;28;20064;-81
2023/11/28 02:18:15;;;;;;;34.83;32.83;;;;;;;0.54;100.00;100463.22;5055800;28;20485;-81
2023/11/28 02:20:42;;;;;;;40.35;38.15;;;;;;;-0.14;100.00;100460.94;5078559;28;20543;-80
2023/11/28 02:23:10;;;;;;;39.67;37.47;;;;;;;0.47;100.00;100449.13;5050094;28;20057;-81
2023/11/28 02:25:43;;;;;;;38.45;36.25;;;;;;;0.59;100.00;100453.97;5068693;28;20053;-81
2023/11/28 02:28:17;;;;;;;42.40;39.90;;;;;;;0.61;100.00;100446.00;5057308;28;20048;-80
2023/11/28 02:30:46;;;;;;;44.85;42.35;;;;;;;0.61;100.00;100444.22;5058054;28;20044;-77
2023/11/28 02:33:24;;;;;;;50.97;48.08;;;;;;;0.43;100.00;100438.16;5068430;28;20044;-81
2023/11/28 02:35:58;;;;;;;44.00;41.60;;;;;;;0.05;100.00;100436.53;5068003;28;20541;-81
2023/11/28 02:38:32;;;;;;;43.65;41.30;;;;;;;-0.02;100.00;100433.69;5069845;28;20052;-81
2023/11/28 02:41:07;;;;;;;37.90;35.70;;;;;;;0.78;100.00;100431.28;5068209;28;20049;-81
2023/11/28 02:43:36;;;;;;;37.95;35.85;;;;;;;0.52;100.00;100424.19;5063013;28;20047;-80
2023/11/28 02:46:02;;;;;;;42.78;40.38;;;;;;;0.00;100.00;100421.31;5056408;28;20052;-81
2023/11/28 02:48:30;;;;;;;36.03;34.03;;;;;;;-0.08;100.00;100416.00;5049796;28;20138;-80
2023/11/28 02:50:57;;;;;;;39.22;37.13;;;;;;;0.21;100.00;100416.69;5066439;28;20052;-80
2023/11/28 02:53:24;;;;;;;36.92;35.03;;;;;;;0.06;100.00;100414.69;5065294;28;20140;-80
2023/11/28 02:55:51;;;;;;;43.53;41.33;;;;;;;0.10;100.00;100410.81;5063657;28;20132;-81
2023/11/28 02:58:18;;;;;;;35.90;34.10;;;;;;;0.07;100.00;100406.72;5069444;28;20569;-80
2023/11/28 03:00:46;;;;;;;35.63;33.78;;;;;;;0.07;100.00;100405.91;5056946;28;20105;-80
2023/11/28 03:03:13;;;;;;;39.10;37.30;;;;;;;-0.25;100.00;100401.91;5049880;28;20131;-80
2023/11/28 03:05:42;;;;;;;51.60;49.10;;;;;;;-0.34;100.00;100394.94;5053827;28;20127;-80
2023/11/28 03:08:09;;;;;;;52.10;49.40;;;;;;;-0.13;100.00;100395.53;5061166;28;20569;-79
2023/11/28 03:10:36;;;;;;;36.60;34.75;;;;;;;-0.11;100.00;100391.00;5065024;28;20044;-80
2023/11/28 03:13:03;;;;;;;43.92;41.75;;;;;;;0.08;100.00;100379.63;5069210;28;20055;-81
2023/11/28 03:15:30;;;;;;;44.38;42.17;;;;;;;-0.08;100.00;100369.81;5068491;28;20068;-80
2023/11/28 03:17:58;;;;;;;29.35;27.85;;;;;;;0.17;100.00;100362.25;5066015;28;20123;-80
2023/11/28 03:20:25;;;;;;;30.95;29.45;;;;;;;0.07;100.00;100358.88;5053209;28;20080;-80
2023/11/28 03:22:52;;;;;;;38.13;36.20;;;;;;;0.37;100.00;100361.16;5066651;28;20063;-80
2023/11/28 03:25:19;;;;;;;44.90;42.75;;;;;;;0.33;100.00;100364.22;5060676;28;20135;-77
2023/11/28 03:27:46;;;;;;;35.25;33.65;;;;;;;0.15;100.00;100356.34;5060116;28;20052;-77
2023/11/28 03:30:14;;;;;;;37.47;35.70;;;;;;;0.22;100.00;100350.41;5064670;28;20489;-77
2023/11/28 03:32:41;;;;;;;36.15;34.45;;;;;;;-0.30;100.00;100344.91;5063900;28;20136;-80
2023/11/28 03:35:10;;;;;;;35.65;33.95;;;;;;;-0.49;100.00;100330.16;5060696;28;20041;-77
2023/11/28 03:37:49;;;;;;;36.25;34.45;;;;;;;-0.51;100.00;100336.50;5072468;28;20440;-80
2023/11/28 03:40:16;;;;;;;30.20;28.67;;;;;;;-0.80;100.00;100339.19;5069998;28;20414;-80
2023/11/28 03:42:44;;;;;;;37.45;35.45;;;;;;;-0.39;100.00;100339.72;5063808;28;20582;-80
2023/11/28 03:45:13;;;;;;;38.60;36.70;;;;;;;-0.35;100.00;100320.22;5059212;28;20441;-80
2023/11/28 03:47:40;;;;;;;32.85;31.15;;;;;;;-0.93;100.00;100319.47;5057459;28;20041;-81
2023/11/28 03:50:08;;;;;;;26.85;25.55;;;;;;;-0.66;100.00;100314.44;5069685;28;20045;-80
2023/11/28 03:52:38;;;;;;;31.20;29.60;;;;;;;-0.59;100.00;100307.69;5057192;28;20080;-80
2023/11/28 03:55:05;;;;;;;31.88;30.38;;;;;;;-0.37;100.00;100307.31;5060745;28;20079;-81
2023/11/28 03:57:34;;;;;;;46.60;44.40;;;;;;;-0.30;100.00;100302.34;5068551;28;20059;-81
2023/11/28 04:00:05;;;;;;;43.63;41.33;;;;;;;-0.54;100.00;100301.06;5068915;28;20052;-81
2023/11/28 04:02:32;;;;;;;34.70;32.80;;;;;;;-0.87;100.00;100294.63;5065791;28;20128;-81
2023/11/28 04:04:59;;;;;;;43.97;41.80;;;;;;;-0.33;100.00;100298.22;5073823;28;20056;-80
2023/11/28 04:07:28;;;;;;;29.42;27.83;;;;;;;0.13;100.00;100300.84;5068388;28;20172;-81
2023/11/28 04:09:56;;;;;;;29.48;27.88;;;;;;;-0.01;100.00;100299.53;5065820;28;20459;-80
2023/11/28 04:12:27;;;;;;;26.23;24.92;;;;;;;-0.64;100.00;100289.03;5071642;28;20497;-80
2023/11/28 04:14:54;;;;;;;35.45;33.75;;;;;;;-1.06;100.00;100294.66;5070721;28;20059;-81
2023/11/28 04:17:21;;;;;;;35.58;33.45;;;;;;;-1.15;100.00;100285.88;5064020;28;20053;-81
2023/11/28 04:19:48;;;;;;;29.88;28.17;;;;;;;-1.05;100.00;100281.47;5066234;28;20059;-80
2023/11/28 04:22:17;;;;;;;33.35;31.55;;;;;;;-0.96;100.00;100278.03;5063982;28;20049;-77
2023/11/28 04:24:47;;;;;;;32.97;31.17;;;;;;;-0.87;100.00;100265.94;5064902;28;20048;-77
2023/11/28 04:27:15;;;;;;;24.63;23.27;;;;;;;-1.37;100.00;100271.38;5063203;28;20053;-77
2023/11/28 04:29:42;;;;;;;28.08;26.80;;;;;;;-0.96;100.00;100272.00;5070335;28;20061;-76
2023/11/28 04:32:12;;;;;;;27.38;26.08;;;;;;;-1.31;100.00;100270.00;5066382;28;20527;-77
2023/11/28 04:34:39;;;;;;;26.05;24.85;;;;;;;-1.32;100.00;100263.16;5067426;28;20044;-77
2023/11/28 04:37:06;;;;;;;24.67;23.48;;;;;;;-1.09;100.00;100261.88;5067320;28;20079;-77
2023/11/28 04:39:33;;;;;;;24.15;22.75;;;;;;;-0.99;100.00;100247.03;5067476;28;20040;-77
2023/11/28 04:42:01;;;;;;;25.08;23.48;;;;;;;-1.14;100.00;100247.63;5074601;28;20059;-77
2023/11/28 04:44:50;;;;;;;24.13;22.90;;;;;;;-1.27;100.00;100250.53;5080134;28;20059;-77
2023/11/28 04:47:25;;;;;;;24.05;22.63;;;;;;;-1.18;100.00;100253.13;5064413;28;20055;-78
2023/11/28 04:49:53;;;;;;;24.13;22.83;;;;;;;-1.45;100.00;100246.06;5061243;28;20052;-77
2023/11/28 04:52:20;;;;;;;24.60;23.20;;;;;;;-1.33;100.00;100244.13;5070361;28;20131;-77
2023/11/28 04:54:56;;;;;;;22.65;21.35;;;;;;;-1.08;100.00;100231.44;5065701;28;20057;-77
2023/11/28 04:57:26;;;;;;;45.75;43.08;;;;;;;-1.16;100.00;100232.94;5060727;28;20056;-77
2023/11/28 04:59:55;;;;;;;24.70;23.30;;;;;;;-1.04;100.00;100236.19;5065382;28;20052;-77
2023/11/28 05:02:22;;;;;;;24.23;22.83;;;;;;;-1.14;100.00;100232.00;5080237;28;20072;-77
2023/11/28 05:04:49;;;;;;;22.85;21.48;;;;;;;-1.10;100.00;100234.16;5065155;28;20052;-77
2023/11/28 05:07:18;;;;;;;24.50;22.90;;;;;;;-1.16;100.00;100232.94;5066967;28;20491;-76
2023/11/28 05:09:46;;;;;;;24.83;23.23;;;;;;;-1.77;100.00;100220.31;5069182;28;20068;-77
2023/11/28 05:12:35;;;;;;;30.02;28.33;;;;;;;-1.36;100.00;100226.16;5066390;28;20064;-77
2023/11/28 05:15:05;;;;;;;28.40;26.75;;;;;;;-1.36;100.00;100214.88;5071831;28;20127;-77
2023/11/28 05:17:33;;;;;;;25.88;23.67;;;;;;;-1.08;100.00;100219.22;5063463;28;20414;-77
2023/11/28 05:20:12;;;;;;;29.98;28.17;;;;;;;-1.20;100.00;100218.56;5073260;28;20119;-77
2023/11/28 05:22:39;;;;;;;28.17;26.48;;;;;;;-1.11;100.00;100218.69;5080803;28;20440;-77
2023/11/28 05:25:07;;;;;;;32.97;31.38;;;;;;;-1.30;100.00;100209.97;5075188;28;20105;-77
2023/11/28 05:27:36;;;;;;;33.50;31.05;;;;;;;-0.92;100.00;100211.59;5067673;28;20053;-77
2023/11/28 05:30:06;;;;;;;24.92;23.52;;;;;;;-0.86;100.00;100206.78;5068378;28;20135;-77
2023/11/28 05:32:32;;;;;;;23.50;22.15;;;;;;;-1.50;100.00;100211.78;5065802;28;20048;-77
2023/11/28 05:34:59;;;;;;;22.88;21.58;;;;;;;-1.29;100.00;100206.38;5061319;28;20056;-77
2023/11/28 05:37:29;;;;;;;22.27;20.98;;;;;;;-1.23;100.00;100202.38;5065965;28;20049;-77
2023/11/28 05:39:57;;;;;;;22.75;21.45;;;;;;;-1.13;100.00;100195.34;5073261;28;20051;-77
2023/11/28 05:42:26;;;;;;;22.55;21.25;;;;;;;-1.04;100.00;100194.50;5069135;28;20159;-77
2023/11/28 05:44:53;;;;;;;20.95;19.75;;;;;;;-1.08;100.00;100180.09;5077745;28;20060;-77
2023/11/28 05:47:22;;;;;;;19.40;18.50;;;;;;;-0.82;100.00;100189.84;5054945;28;20049;-77
2023/11/28 05:49:49;;;;;;;20.30;18.95;;;;;;;-0.69;100.00;100192.97;5057957;28;20143;-81
2023/11/28 05:52:16;;;;;;;18.40;17.40;;;;;;;-0.52;100.00;100193.94;5056117;28;20120;-81
2023/11/28 05:54:42;;;;;;;22.38;20.30;;;;;;;-0.34;100.00;100173.91;5066345;28;20553;-80
2023/11/28 05:57:09;;;;;;;20.95;19.55;;;;;;;-0.38;100.00;100179.59;5068067;28;20070;-76
2023/11/28 05:59:36;;;;;;;21.85;20.65;;;;;;;-0.19;100.00;100176.81;5053104;28;20048;-77
2023/11/28 06:02:04;;;;;;;22.98;21.67;;;;;;;-0.30;100.00;100179.69;5068640;28;20782;-77
2023/11/28 06:04:34;;;;;;;20.63;19.63;;;;;;;0.09;100.00;100181.97;5066775;28;20127;-77
2023/11/28 06:07:01;;;;;;;21.25;20.05;;;;;;;-0.01;100.00;100175.03;5057537;28;20517;-78
2023/11/28 06:09:34;;;;;;;33.90;30.92;;;;;;;0.34;100.00;100167.31;5077897;28;20047;-77
2023/11/28 06:12:01;;;;;;;28.98;27.02;;;;;;;0.46;100.00;100168.69;5053177;28;20047;-78
2023/11/28 06:14:29;;;;;;;27.10;25.50;;;;;;;0.72;100.00;100155.59;5062671;28;20051;-77
2023/11/28 06:16:56;;;;;;;25.95;24.55;;;;;;;1.02;100.00;100159.50;5064611;28;20682;-77
2023/11/28 06:19:22;;;;;;;28.70;26.90;;;;;;;0.98;100.00;100154.75;5067078;28;22069;-77
2023/11/28 06:21:51;;;;;;;23.10;21.90;;;;;;;1.08;100.00;100151.00;5049494;28;20155;-77
2023/11/28 06:24:18;;;;;;;25.67;24.17;;;;;;;1.21;100.00;100141.91;5062392;28;20522;-77
2023/11/28 06:26:45;;;;;;;23.80;22.50;;;;;;;1.12;100.00;100136.66;5051709;28;20059;-77
2023/11/28 06:29:12;;;;;;;23.63;22.42;;;;;;;1.11;100.00;100135.00;5062057;28;20078;-77
2023/11/28 06:31:39;;;;;;;20.52;19.52;;;;;;;1.10;100.00;100137.78;5059703;28;20508;-77
2023/11/28 06:34:06;;;;;;;20.92;19.73;;;;;;;1.12;100.00;100123.59;5065563;28;20047;-78
2023/11/28 06:36:34;;;;;;;19.00;18.00;;;;;;;1.29;100.00;100128.84;5056434;28;20053;-78
2023/11/28 06:39:03;;;;;;;21.27;20.17;;;;;;;4.32;100.00;100124.13;5059970;28;20049;-78
2023/11/28 06:41:30;;;;;;;24.02;22.83;;;;;;;1.56;100.00;100114.66;5060235;28;20136;-78
2023/11/28 06:43:57;;;;;;;25.38;24.08;;;;;;;1.55;100.00;100110.44;5051434;28;20041;-78
2023/11/28 06:46:26;;;;;;;25.48;24.17;;;;;;;1.51;100.00;100123.03;5044727;28;20063;-78
2023/11/28 06:48:53;;;;;;;25.05;23.55;;;;;;;1.65;100.00;100118.13;5067097;28;20495;-78
2023/11/28 06:51:20;;;;;;;27.67;26.02;;;;;;;1.74;100.00;100115.34;5053222;28;20723;-78
2023/11/28 06:53:47;;;;;;;26.30;24.83;;;;;;;1.57;100.00;100113.69;5057900;28;20438;-80
2023/11/28 06:56:16;;;;;;;31.05;29.30;;;;;;;1.56;100.00;100109.44;5055721;28;20501;-78
2023/11/28 06:58:49;;;;;;;25.83;24.02;;;;;;;1.66;100.00;100107.47;5067185;28;20052;-78
2023/11/28 07:01:16;;;;;;;26.67;25.17;;;;;;;1.83;100.00;100101.25;5058616;28;20132;-78
2023/11/28 07:03:43;;;;;;;27.27;25.77;;;;;;;2.04;100.00;100100.75;5061010;28;20045;-81
2023/11/28 07:06:24;;;;;;;23.67;22.27;;;;;;;1.70;100.00;100103.56;5059702;28;20057;-80
2023/11/28 07:08:51;;;;;;;22.88;21.67;;;;;;;1.76;100.00;100095.06;5050600;28;20049;-80
2023/11/28 07:11:20;;;;;;;21.30;20.10;;;;;;;2.27;100.00;100095.66;5059079;28;20438;-80
2023/11/28 07:13:48;;;;;;;20.30;19.30;;;;;;;2.34;100.00;100092.38;5063846;28;20504;-80
2023/11/28 07:16:15;;;;;;;22.42;21.23;;;;;;;2.26;100.00;100096.63;5053112;28;20052;-80
2023/11/28 07:18:42;;;;;;;22.83;21.63;;;;;;;2.48;100.00;100089.88;5058172;28;20049;-78
2023/11/28 07:21:10;;;;;;;24.90;23.60;;;;;;;2.53;100.00;100084.94;5058325;28;20048;-78
2023/11/28 07:23:41;;;;;;;23.50;22.20;;;;;;;2.75;100.00;100083.41;5055085;28;20052;-78
2023/11/28 07:26:11;;;;;;;24.08;22.58;;;;;;;2.82;100.00;100073.03;5060973;28;20045;-80
2023/11/28 07:28:41;;;;;;;25.35;23.75;;;;;;;2.97;100.00;100065.25;5069648;28;20128;-80
2023/11/28 07:31:08;;;;;;;23.42;22.02;;;;;;;3.12;100.00;100062.72;5061161;28;20045;-80
2023/11/28 07:33:35;;;;;;;24.35;22.83;;;;;;;3.04;100.00;100057.50;5064056;28;20136;-80
2023/11/28 07:36:11;;;;;;;23.40;22.10;;;;;;;3.22;100.00;100047.56;5069646;28;20054;-80
2023/11/28 07:38:41;;;;;;;26.08;24.50;;;;;;;3.34;100.00;100058.47;5071350;28;20051;-80
2023/11/28 07:41:12;;;;;;;23.15;21.00;;;;;;;3.61;100.00;100062.38;5066882;28;20087;-78
2023/11/28 07:43:40;;;;;;;22.33;21.10;;;;;;;3.62;100.00;100053.50;5052282;28;20135;-78
2023/11/28 07:46:09;;;;;;;23.98;22.73;;;;;;;3.95;100.00;100038.25;5052516;28;20162;-78
2023/11/28 07:48:37;;;;;;;27.02;25.33;;;;;;;3.96;100.00;100050.38;5047576;28;20053;-78
2023/11/28 07:51:07;;;;;;;24.83;23.15;;;;;;;3.95;100.00;100037.44;5051993;28;20053;-78
2023/11/28 07:53:33;;;;;;;23.00;21.70;;;;;;;3.98;100.00;100040.53;5052698;28;20081;-78
2023/11/28 07:56:10;;;;;;;22.73;21.52;;;;;;;4.01;100.00;100020.97;5053486;28;20152;-78
2023/11/28 07:58:38;;;;;;;21.00;19.83;;;;;;;4.06;100.00;100021.25;5052166;28;20137;-80
2023/11/28 08:01:28;;;;;;;21.75;20.45;;;;;;;4.11;100.00;100018.88;5065171;28;20555;-80
2023/11/28 08:03:55;;;;;;;21.05;19.85;;;;;;;4.15;100.00;100014.91;5056324;28;20041;-80
2023/11/28 08:06:33;;;;;;;22.70;21.35;;;;;;;4.23;100.00;100008.72;5065104;28;20053;-80
2023/11/28 08:09:00;;;;;;;23.05;21.52;;;;;;;4.39;100.00;99999.81;5058981;28;20887;-80
2023/11/28 08:11:27;;;;;;;23.45;22.05;;;;;;;4.67;100.00;99997.34;5056443;28;20060;-80
2023/11/28 08:13:54;;;;;;;21.98;20.77;;;;;;;4.66;100.00;99995.72;5055359;28;20040;-80
2023/11/28 08:16:23;;;;;;;22.10;20.90;;;;;;;5.17;100.00;99980.66;5069534;28;20059;-80
2023/11/28 08:18:54;;;;;;;24.30;22.88;;;;;;;5.33;100.00;99968.25;5067584;28;20131;-80
2023/11/28 08:21:22;;;;;;;20.35;19.25;;;;;;;5.55;100.00;99959.31;5061632;28;20136;-78
2023/11/28 08:23:50;;;;;;;19.20;18.10;;;;;;;5.86;100.00;99958.91;5051492;28;20045;-78
2023/11/28 08:26:19;;;;;;;19.02;17.92;;;;;;;6.01;100.00;99955.38;5060424;28;20052;-80
2023/11/28 08:28:46;;;;;;;21.65;20.30;;;;;;;6.14;100.00;99947.53;5052331;28;20053;-80
2023/11/28 08:31:13;;;;;;;20.20;19.02;;;;;;;6.38;100.00;99944.41;5072714;28;20048;-80
2023/11/28 08:33:40;;;;;;;21.15;19.95;;;;;;;7.62;100.00;99940.50;5080046;28;20139;-81
2023/11/28 08:36:13;;;;;;;21.00;19.80;;;;;;;7.53;100.00;99933.78;5064307;28;20056;-81
2023/11/28 08:38:40;;;;;;;22.13;20.83;;;;;;;7.50;100.00;99923.63;5070172;28;20049;-81
2023/11/28 08:41:08;;;;;;;25.73;24.23;;;;;;;6.99;100.00;99913.69;5064054;28;20441;-80
2023/11/28 08:43:44;;;;;;;23.95;22.58;;;;;;;7.00;100.00;99895.00;5054277;28;20132;-81
2023/11/28 08:46:14;;;;;;;22.38;21.08;;;;;;;6.53;100.00;99895.94;5056456;28;20084;-81
2023/11/28 08:48:52;;;;;;;24.20;22.80;;;;;;;6.26;100.00;99885.31;5068466;28;20048;-81
2023/11/28 08:51:20;;;;;;;22.50;21.30;;;;;;;6.34;100.00;99887.78;5065830;28;20076;-81
2023/11/28 08:53:47;;;;;;;22.23;20.95;;;;;;;6.20;100.00;99872.91;5055390;28;20520;-81
2023/11/28 08:56:14;;;;;;;23.40;21.90;;;;;;;6.23;100.00;99872.50;5067249;28;20516;-81
2023/11/28 08:58:41;;;;;;;24.55;23.25;;;;;;;6.23;100.00;99856.69;5063727;28;20057;-81
2023/11/28 09:01:09;;;;;;;25.40;23.88;;;;;;;6.26;100.00;99852.84;5067781;28;20163;-81
2023/11/28 09:03:36;;;;;;;20.58;19.38;;;;;;;6.45;100.00;99856.56;5056839;28;20170;-81
2023/11/28 09:06:03;;;;;;;22.77;21.48;;;;;;;6.15;100.00;99839.25;5060741;28;20045;-81
2023/11/28 09:08:31;;;;;;;21.90;20.60;;;;;;;6.04;100.00;99826.63;5056782;28;20049;-81
2023/11/28 09:10:58;;;;;;;23.77;22.48;;;;;;;5.80;100.00;99812.09;5058915;28;20489;-81
2023/11/28 09:13:25;;;;;;;24.20;22.90;;;;;;;6.02;100.00;99798.81;5066167;28;20144;-81
2023/11/28 09:15:52;;;;;;;23.20;21.85;;;;;;;5.90;100.00;99788.84;5080704;28;20067;-81
2023/11/28 09:18:19;;;;;;;21.77;20.67;;;;;;;5.94;100.00;99787.47;5078882;28;20048;-81
2023/11/28 09:20:47;;;;;;;22.33;20.70;;;;;;;6.03;100.00;99797.84;5077690;28;20044;-81
2023/11/28 09:23:16;;;;;;;20.40;19.30;;;;;;;6.16;100.00;99790.75;5064036;28;20053;-81
2023/11/28 09:25:44;;;;;;;20.30;19.20;;;;;;;6.26;100.00;99793.00;5071969;28;20458;-78
2023/11/28 09:28:11;;;;;;;20.17;19.08;;;;;;;6.47;100.00;99781.47;5076421;28;20457;-78
2023/11/28 09:30:44;;;;;;;21.20;20.00;;;;;;;6.66;100.00;99777.25;5065875;28;20041;-78
2023/11/28 09:33:21;;;;;;;21.13;20.00;;;;;;;6.48;100.00;99774.41;5080766;28;20135;-78
2023/11/28 09:35:48;;;;;;;19.35;18.05;;;;;;;6.70;100.00;99759.16;5071090;28;20053;-78
2023/11/28 09:38:20;;;;;;;20.25;18.90;;;;;;;6.55;100.00;99765.44;5059628;28;20049;-78
2023/11/28 09:40:49;;;;;;;20.60;19.30;;;;;;;6.70;100.00;99753.88;5063390;28;20076;-78
2023/11/28 09:43:16;;;;;;;22.90;21.60;;;;;;;6.59;100.00;99752.66;5076407;28;20047;-78
2023/11/28 09:45:43;;;;;;;22.60;21.30;;;;;;;6.60;100.00;99773.59;5075636;28;20047;-78
2023/11/28 09:48:13;;;;;;;21.50;20.20;;;;;;;6.76;100.00;99764.44;5059334;28;20049;-81
2023/11/28 09:50:41;;;;;;;19.85;18.75;;;;;;;6.81;100.00;99759.38;5055988;28;20055;-81
2023/11/28 09:53:09;;;;;;;21.30;20.10;;;;;;;6.88;100.00;99738.25;5050791;28;20060;-78
2023/11/28 09:55:39;;;;;;;23.25;21.85;;;;;;;6.70;100.00;99725.66;5051584;28;20501;-78
2023/11/28 09:58:07;;;;;;;22.58;21.17;;;;;;;6.58;100.00;99707.00;5060359;28;20536;-81
2023/11/28 10:00:35;;;;;;;21.23;19.92;;;;;;;6.40;100.00;99680.44;5054975;28;20519;-81
2023/11/28 10:03:02;;;;;;;22.02;20.73;;;;;;;6.29;100.00;99659.94;5059190;28;20060;-81
2023/11/28 10:05:30;;;;;;;22.65;21.05;;;;;;;6.40;100.00;99657.50;5049467;28;20044;-82
2023/11/28 10:07:57;;;;;;;21.15;19.85;;;;;;;6.45;100.00;99675.38;5069317;28;20052;-79
2023/11/28 10:10:25;;;;;;;22.95;21.35;;;;;;;6.13;100.00;99685.69;5058563;28;20540;-80
2023/11/28 10:12:53;;;;;;;23.60;22.17;;;;;;;6.65;100.00;99689.31;5067421;28;20087;-79
2023/11/28 10:15:21;;;;;;;24.85;23.05;;;;;;;6.53;100.00;99676.97;5060161;28;20076;-82
2023/11/28 10:17:49;;;;;;;26.65;24.58;;;;;;;6.65;100.00;99678.78;5071706;28;20508;-83
2023/11/28 10:20:17;;;;;;;29.90;26.85;;;;;;;6.63;100.00;99670.28;5050690;28;20526;-83
2023/11/28 10:22:52;;;;;;;24.45;22.90;;;;;;;6.55;100.00;99661.75;5062236;28;20114;-83
2023/11/28 10:25:21;;;;;;;23.95;22.35;;;;;;;6.26;100.00;99653.25;5056840;28;20060;-82
2023/11/28 10:27:49;;;;;;;29.30;27.25;;;;;;;6.48;100.00;99655.69;5051086;28;20859;-82
2023/11/28 10:30:21;;;;;;;28.70;26.67;;;;;;;6.23;100.00;99650.19;5053704;28;20494;-82
2023/11/28 10:32:49;;;;;;;27.02;25.33;;;;;;;6.07;100.00;99643.50;5053605;28;20140;-82
2023/11/28 10:35:16;;;;;;;23.98;22.38;;;;;;;6.11;100.00;99639.44;5053212;28;20102;-79
2023/11/28 10:37:44;;;;;;;24.05;22.15;;;;;;;6.12;100.00;99622.63;5049308;28;20118;-79
2023/11/28 10:40:13;;;;;;;28.40;26.35;;;;;;;6.11;100.00;99619.19;5048913;28;20044;-79
2023/11/28 10:42:43;;;;;;;29.48;26.50;;;;;;;5.98;100.00;99619.19;5049497;28;20437;-82
2023/11/28 10:45:15;;;;;;;37.13;33.45;;;;;;;5.71;100.00;99608.56;5049018;28;20045;-82
2023/11/28 10:47:43;;;;;;;35.17;31.30;;;;;;;5.86;100.00;99607.59;5051675;28;20139;-82
2023/11/28 10:50:28;;;;;;;33.03;30.05;;;;;;;5.86;100.00;99602.31;5067432;28;20048;-82
2023/11/28 10:52:59;;;;;;;29.15;27.10;;;;;;;5.84;100.00;99591.16;5053574;28;20053;-82
2023/11/28 10:55:29;;;;;;;25.27;23.73;;;;;;;5.77;100.00;99588.53;5070623;28;20044;-82
2023/11/28 10:58:02;;;;;;;22.83;21.42;;;;;;;5.78;100.00;99574.34;5067421;28;20451;-82
2023/11/28 11:00:29;;;;;;;27.55;25.80;;;;;;;5.70;100.00;99566.63;5057346;28;20228;-82
2023/11/28 11:02:57;;;;;;;22.95;21.65;;;;;;;5.71;100.00;99555.06;5062491;28;20051;-82
2023/11/28 11:05:29;;;;;;;21.42;20.13;;;;;;;5.65;100.00;99542.72;5059720;28;20501;-79
2023/11/28 11:07:57;;;;;;;24.05;22.40;;;;;;;5.67;100.00;99538.06;5072401;28;20044;-79
2023/11/28 11:10:24;;;;;;;25.95;24.15;;;;;;;5.77;100.00;99540.28;5069910;28;20134;-79
2023/11/28 11:13:00;;;;;;;25.30;23.80;;;;;;;5.82;100.00;99532.59;5053280;28;20434;-79
2023/11/28 11:15:35;;;;;;;24.58;23.08;;;;;;;5.59;100.00;99528.53;5057830;28;20085;-80
2023/11/28 11:18:12;;;;;;;25.75;24.35;;;;;;;5.54;100.00;99517.81;5055751;28;20075;-79